createdAt,value
2022-10-16T00:01:31.146Z,9.10
2022-10-16T00:04:00.445Z,9.10
2022-10-16T00:06:29.087Z,9.10
2022-10-16T00:08:57.144Z,9.10
2022-10-16T00:11:31.140Z,9.10
2022-10-16T00:14:00.880Z,9.10
2022-10-16T00:16:29.327Z,9.10
2022-10-16T00:18:57.637Z,9.10
2022-10-16T00:21:28.053Z,9.10
2022-10-16T00:24:04.780Z,9.10
2022-10-16T00:26:34.642Z,9.10
2022-10-16T00:29:02.239Z,9.10
2022-10-16T00:31:30.640Z,9.10
2022-10-16T00:33:58.402Z,9.10
2022-10-16T00:36:27.026Z,9.20
2022-10-16T00:38:56.425Z,9.10
2022-10-16T00:41:26.220Z,9.10
2022-10-16T00:43:58.926Z,9.10
2022-10-16T00:46:43.339Z,9.00
2022-10-16T00:49:15.286Z,9.00
2022-10-16T00:51:46.231Z,9.00
2022-10-16T00:54:25.471Z,8.90
2022-10-16T00:56:54.749Z,8.90
2022-10-16T00:59:40.187Z,8.80
2022-10-16T01:02:13.028Z,8.80
2022-10-16T01:04:46.981Z,8.80
2022-10-16T01:07:44.648Z,8.80
2022-10-16T01:10:33.422Z,8.70
2022-10-16T01:13:04.054Z,8.70
2022-10-16T01:15:46.191Z,8.60
2022-10-16T01:18:22.691Z,8.60
2022-10-16T01:21:01.992Z,8.60
2022-10-16T01:23:46.124Z,8.50
2022-10-16T01:26:27.045Z,8.60
2022-10-16T01:29:09.230Z,8.60
2022-10-16T01:31:40.324Z,8.60
2022-10-16T01:34:19.533Z,8.60
2022-10-16T01:36:57.495Z,8.60
2022-10-16T01:39:31.597Z,8.60
2022-10-16T01:42:09.059Z,8.60
2022-10-16T01:44:39.506Z,8.60
2022-10-16T01:47:10.579Z,8.60
2022-10-16T01:49:40.947Z,8.60
2022-10-16T01:52:15.568Z,8.60
2022-10-16T01:54:47.332Z,8.60
2022-10-16T01:57:15.835Z,8.60
2022-10-16T01:59:49.638Z,8.60
2022-10-16T02:02:19.579Z,8.60
2022-10-16T02:05:09.185Z,8.50
2022-10-16T02:07:36.705Z,8.50
2022-10-16T02:10:04.633Z,8.50
2022-10-16T02:12:40.555Z,8.50
2022-10-16T02:15:08.249Z,8.50
2022-10-16T02:17:36.539Z,8.60
2022-10-16T02:20:06.045Z,8.60
2022-10-16T02:22:37.738Z,8.60
2022-10-16T02:25:33.581Z,8.60
2022-10-16T02:28:41.140Z,8.50
2022-10-16T02:31:12.462Z,8.60
2022-10-16T02:33:43.096Z,8.50
2022-10-16T02:36:11.771Z,8.50
2022-10-16T02:38:40.876Z,8.50
2022-10-16T02:41:08.912Z,8.50
2022-10-16T02:43:36.409Z,8.60
2022-10-16T02:46:04.003Z,8.50
2022-10-16T02:48:31.564Z,8.50
2022-10-16T02:50:59.124Z,8.50
2022-10-16T02:53:26.542Z,8.50
2022-10-16T02:55:53.982Z,8.50
2022-10-16T02:58:21.558Z,8.50
2022-10-16T03:00:49.108Z,8.50
2022-10-16T03:03:16.651Z,8.40
2022-10-16T03:05:46.795Z,8.40
2022-10-16T03:08:14.784Z,8.40
2022-10-16T03:10:42.261Z,8.40
2022-10-16T03:13:09.719Z,8.40
2022-10-16T03:15:37.125Z,8.40
2022-10-16T03:18:04.721Z,8.40
2022-10-16T03:20:32.187Z,8.30
2022-10-16T03:22:59.714Z,8.30
2022-10-16T03:25:27.192Z,8.30
2022-10-16T03:27:54.638Z,8.30
2022-10-16T03:30:22.352Z,8.30
2022-10-16T03:32:49.933Z,8.20
2022-10-16T03:35:17.497Z,8.20
2022-10-16T03:37:44.982Z,8.10
2022-10-16T03:40:12.918Z,8.10
2022-10-16T03:42:40.485Z,8.10
2022-10-16T03:45:08.191Z,8.10
2022-10-16T03:47:35.723Z,8.10
2022-10-16T03:50:04.030Z,8.10
2022-10-16T03:52:33.203Z,8.00
2022-10-16T03:55:00.665Z,8.00
2022-10-16T03:57:28.529Z,7.90
2022-10-16T03:59:56.368Z,7.90
2022-10-16T04:02:24.026Z,7.80
2022-10-16T04:04:52.192Z,7.80
2022-10-16T04:07:19.815Z,7.80
2022-10-16T04:09:47.476Z,7.80
2022-10-16T04:12:15.089Z,7.80
2022-10-16T04:14:42.495Z,7.70
2022-10-16T04:17:09.931Z,7.70
2022-10-16T04:19:37.351Z,7.60
2022-10-16T04:22:04.834Z,7.60
2022-10-16T04:24:32.227Z,7.60
2022-10-16T04:26:59.728Z,7.60
2022-10-16T04:29:27.142Z,7.50
2022-10-16T04:31:54.623Z,7.50
2022-10-16T04:34:22.205Z,7.40
2022-10-16T04:36:50.396Z,7.40
2022-10-16T04:39:18.001Z,7.40
2022-10-16T04:41:45.400Z,7.40
2022-10-16T04:44:12.951Z,7.40
2022-10-16T04:46:40.393Z,7.40
2022-10-16T04:49:07.847Z,7.40
2022-10-16T04:51:35.302Z,7.30
2022-10-16T04:54:02.927Z,7.30
2022-10-16T04:56:30.416Z,7.40
2022-10-16T04:58:57.846Z,7.30
2022-10-16T05:01:25.327Z,7.30
2022-10-16T05:03:52.832Z,7.30
2022-10-16T05:06:20.247Z,7.20
2022-10-16T05:08:47.974Z,7.20
2022-10-16T05:11:15.403Z,7.20
2022-10-16T05:13:42.874Z,7.10
2022-10-16T05:16:10.315Z,7.10
2022-10-16T05:18:37.773Z,7.00
2022-10-16T05:21:05.428Z,7.00
2022-10-16T05:23:33.113Z,7.00
2022-10-16T05:26:00.859Z,6.90
2022-10-16T05:29:22.918Z,6.90
2022-10-16T05:31:54.419Z,6.90
2022-10-16T05:34:22.617Z,6.90
2022-10-16T05:36:50.134Z,6.90
2022-10-16T05:39:17.902Z,6.90
2022-10-16T05:41:45.541Z,6.90
2022-10-16T05:44:13.075Z,6.90
2022-10-16T05:46:40.458Z,6.90
2022-10-16T05:49:07.948Z,6.90
2022-10-16T05:51:35.382Z,6.90
2022-10-16T05:54:02.866Z,6.90
2022-10-16T05:56:30.468Z,6.90
2022-10-16T05:58:58.063Z,6.90
2022-10-16T06:01:26.037Z,6.80
2022-10-16T06:03:53.882Z,6.80
2022-10-16T06:06:24.011Z,6.70
2022-10-16T06:08:51.515Z,6.70
2022-10-16T06:11:25.960Z,6.70
2022-10-16T06:13:55.380Z,6.60
2022-10-16T06:16:23.772Z,6.60
2022-10-16T06:18:55.277Z,6.60
2022-10-16T06:21:27.715Z,6.60
2022-10-16T06:23:56.620Z,6.60
2022-10-16T06:26:26.910Z,6.60
2022-10-16T06:28:59.140Z,6.60
2022-10-16T06:31:30.129Z,6.60
2022-10-16T06:33:58.543Z,6.70
2022-10-16T06:36:26.601Z,6.70
2022-10-16T06:38:54.517Z,6.70
2022-10-16T06:41:23.290Z,6.70
2022-10-16T06:43:51.186Z,6.70
2022-10-16T06:46:21.408Z,6.70
2022-10-16T06:48:48.907Z,6.60
2022-10-16T06:51:18.761Z,6.60
2022-10-16T06:54:06.890Z,6.60
2022-10-16T06:56:35.164Z,6.50
2022-10-16T06:59:03.677Z,6.50
2022-10-16T07:01:31.750Z,6.50
2022-10-16T07:03:59.513Z,6.50
2022-10-16T07:06:28.608Z,6.60
2022-10-16T07:08:56.478Z,6.50
2022-10-16T07:11:24.941Z,6.50
2022-10-16T07:13:55.874Z,6.50
2022-10-16T07:16:26.641Z,6.50
2022-10-16T07:19:00.654Z,6.50
2022-10-16T07:21:36.563Z,6.50
2022-10-16T07:24:16.967Z,6.60
2022-10-16T07:26:46.334Z,6.50
2022-10-16T07:29:19.099Z,6.60
2022-10-16T07:31:47.515Z,6.60
2022-10-16T07:34:17.796Z,6.60
2022-10-16T07:36:45.547Z,6.60
2022-10-16T07:39:12.963Z,6.60
2022-10-16T07:41:40.429Z,6.50
2022-10-16T07:44:07.978Z,6.50
2022-10-16T07:46:37.043Z,6.50
2022-10-16T07:49:04.941Z,6.50
2022-10-16T07:51:32.499Z,6.50
2022-10-16T07:53:59.956Z,6.50
2022-10-16T07:56:27.414Z,6.50
2022-10-16T07:58:55.069Z,6.60
2022-10-16T08:01:22.592Z,6.60
2022-10-16T08:03:51.921Z,6.60
2022-10-16T08:06:25.105Z,6.70
2022-10-16T08:09:05.128Z,6.70
2022-10-16T08:11:32.984Z,6.80
2022-10-16T08:14:00.455Z,6.90
2022-10-16T08:16:27.888Z,6.90
2022-10-16T08:18:55.314Z,7.00
2022-10-16T08:21:24.275Z,6.90
2022-10-16T08:23:57.171Z,7.00
2022-10-16T08:26:26.795Z,7.10
2022-10-16T08:28:55.123Z,7.10
2022-10-16T08:31:23.676Z,7.10
2022-10-16T08:33:51.219Z,7.30
2022-10-16T08:36:20.640Z,7.30
2022-10-16T08:38:52.182Z,7.30
2022-10-16T08:41:41.032Z,7.30
2022-10-16T08:44:42.723Z,7.40
2022-10-16T08:47:10.269Z,7.40
2022-10-16T08:49:38.979Z,7.40
2022-10-16T08:52:13.664Z,7.40
2022-10-16T08:54:47.681Z,7.50
2022-10-16T08:57:21.511Z,7.50
2022-10-16T08:59:52.832Z,7.50
2022-10-16T09:02:32.642Z,7.60
2022-10-16T09:05:11.393Z,7.70
2022-10-16T09:07:53.851Z,7.70
2022-10-16T09:10:50.097Z,7.70
2022-10-16T09:13:59.184Z,7.70
2022-10-16T09:16:41.080Z,7.70
2022-10-16T09:19:28.372Z,7.80
2022-10-16T09:21:57.513Z,7.80
2022-10-16T09:24:29.405Z,7.80
2022-10-16T09:26:57.216Z,7.90
2022-10-16T09:29:26.301Z,8.00
2022-10-16T09:31:56.075Z,8.00
2022-10-16T09:34:33.269Z,8.10
2022-10-16T09:37:04.674Z,8.10
2022-10-16T09:39:32.203Z,8.20
2022-10-16T09:42:01.279Z,8.20
2022-10-16T09:44:32.970Z,8.20
2022-10-16T09:47:15.434Z,8.30
2022-10-16T09:50:00.759Z,8.40
2022-10-16T09:52:29.149Z,8.60
2022-10-16T09:55:05.870Z,8.60
2022-10-16T09:57:35.830Z,8.70
2022-10-16T10:00:10.060Z,8.70
2022-10-16T10:02:39.236Z,8.80
2022-10-16T10:05:18.271Z,8.80
2022-10-16T10:07:50.219Z,8.90
2022-10-16T10:10:29.624Z,9.00
2022-10-16T10:12:58.312Z,9.00
2022-10-16T10:15:29.003Z,9.10
2022-10-16T10:17:58.735Z,9.30
2022-10-16T10:20:30.390Z,9.30
2022-10-16T10:22:58.249Z,9.40
2022-10-16T10:25:51.005Z,9.50
2022-10-16T10:28:33.402Z,9.60
2022-10-16T10:31:29.476Z,9.60
2022-10-16T10:34:12.365Z,9.80
2022-10-16T10:36:42.066Z,9.90
2022-10-16T10:39:37.034Z,10.00
2022-10-16T10:42:16.451Z,10.00
2022-10-16T10:45:05.531Z,10.00
2022-10-16T10:47:44.383Z,10.10
2022-10-16T10:50:20.716Z,10.30
2022-10-16T10:52:59.210Z,10.30
2022-10-16T10:55:52.179Z,10.40
2022-10-16T10:58:47.098Z,10.50
2022-10-16T11:01:19.278Z,10.60
2022-10-16T11:04:04.832Z,10.70
2022-10-16T11:09:24.780Z,11.20
2022-10-16T11:12:16.913Z,11.50
2022-10-16T11:14:56.649Z,11.70
2022-10-16T11:17:35.945Z,11.90
2022-10-16T11:20:14.680Z,11.90
2022-10-16T11:22:54.250Z,12.10
2022-10-16T11:25:33.140Z,12.10
2022-10-16T11:28:27.869Z,12.00
2022-10-16T11:31:04.877Z,12.20
2022-10-16T11:33:42.264Z,12.20
2022-10-16T11:36:34.371Z,12.40
2022-10-16T11:39:07.601Z,12.40
2022-10-16T11:41:37.370Z,12.40
2022-10-16T11:44:48.636Z,12.50
2022-10-16T11:47:34.212Z,12.50
2022-10-16T11:50:21.289Z,12.60
2022-10-16T11:53:20.883Z,12.60
2022-10-16T11:55:48.390Z,12.60
2022-10-16T11:58:27.915Z,12.60
2022-10-16T12:01:10.472Z,12.50
2022-10-16T12:03:50.634Z,12.60
2022-10-16T12:06:50.321Z,12.70
2022-10-16T12:09:28.676Z,12.90
2022-10-16T12:11:56.867Z,13.00
2022-10-16T12:15:03.774Z,13.20
2022-10-16T12:17:38.288Z,13.10
2022-10-16T12:20:14.895Z,13.10
2022-10-16T12:22:55.166Z,13.20
2022-10-16T12:25:31.874Z,13.30
2022-10-16T12:28:02.599Z,13.30
2022-10-16T12:30:35.995Z,13.50
2022-10-16T12:33:07.106Z,13.40
2022-10-16T12:35:44.223Z,13.40
2022-10-16T12:38:19.645Z,13.40
2022-10-16T12:40:57.260Z,13.70
2022-10-16T12:43:29.011Z,13.70
2022-10-16T12:46:02.826Z,13.80
2022-10-16T12:48:42.377Z,14.00
2022-10-16T12:51:31.079Z,14.10
2022-10-16T12:54:14.154Z,14.10
2022-10-16T12:57:15.789Z,14.20
2022-10-16T12:59:57.685Z,14.10
2022-10-16T13:02:36.940Z,14.20
2022-10-16T13:05:33.985Z,14.20
2022-10-16T13:08:24.313Z,14.20
2022-10-16T13:11:12.988Z,14.00
2022-10-16T13:14:03.333Z,14.10
2022-10-16T13:16:45.736Z,14.00
2022-10-16T13:19:48.114Z,14.00
2022-10-16T13:22:27.928Z,13.80
2022-10-16T13:25:26.361Z,13.80
2022-10-16T13:27:56.704Z,13.60
2022-10-16T13:30:30.997Z,13.80
2022-10-16T13:33:03.494Z,13.70
2022-10-16T13:35:33.489Z,13.70
2022-10-16T13:38:13.369Z,13.80
2022-10-16T13:41:19.372Z,13.60
2022-10-16T13:43:57.065Z,13.60
2022-10-16T13:46:26.950Z,13.70
2022-10-16T13:48:59.200Z,13.60
2022-10-16T13:51:27.871Z,13.70
2022-10-16T13:54:00.203Z,13.60
2022-10-16T13:56:30.314Z,13.50
2022-10-16T13:59:06.310Z,13.60
2022-10-16T14:01:40.880Z,13.60
2022-10-16T14:04:13.960Z,13.60
2022-10-16T14:06:44.374Z,13.50
2022-10-16T14:09:23.540Z,13.60
2022-10-16T14:12:03.346Z,13.60
2022-10-16T14:14:41.517Z,13.60
2022-10-16T14:17:15.922Z,13.60
2022-10-16T14:19:50.450Z,13.60
2022-10-16T14:22:36.105Z,13.50
2022-10-16T14:25:22.098Z,13.40
2022-10-16T14:30:36.956Z,13.40
2022-10-16T14:33:07.174Z,13.40
2022-10-16T14:35:41.537Z,13.40
2022-10-16T14:38:20.863Z,13.40
2022-10-16T14:40:50.506Z,13.40
2022-10-16T14:43:33.750Z,13.40
2022-10-16T14:46:03.475Z,13.20
2022-10-16T14:48:31.205Z,13.20
2022-10-16T14:50:58.705Z,13.20
2022-10-16T14:53:26.245Z,13.20
2022-10-16T14:55:53.887Z,13.10
2022-10-16T14:58:23.852Z,13.10
2022-10-16T15:00:51.420Z,13.00
2022-10-16T15:03:18.893Z,13.00
2022-10-16T15:05:46.497Z,13.00
2022-10-16T15:08:14.105Z,13.00
2022-10-16T15:10:44.460Z,12.90
2022-10-16T15:13:15.297Z,12.90
2022-10-16T15:15:48.057Z,12.90
2022-10-16T15:18:20.863Z,12.90
2022-10-16T15:20:51.308Z,12.90
2022-10-16T15:23:22.150Z,12.90
2022-10-16T15:25:57.186Z,12.80
2022-10-16T15:28:26.944Z,12.80
2022-10-16T15:30:57.356Z,12.80
2022-10-16T15:33:37.061Z,12.80
2022-10-16T15:36:08.121Z,12.80
2022-10-16T15:38:35.723Z,12.70
2022-10-16T15:41:03.313Z,12.60
2022-10-16T15:43:30.904Z,12.60
2022-10-16T15:46:07.554Z,12.70
2022-10-16T15:48:35.356Z,12.60
2022-10-16T15:51:07.568Z,12.60
2022-10-16T15:53:36.104Z,12.50
2022-10-16T15:56:04.779Z,12.50
2022-10-16T15:58:32.653Z,12.50
2022-10-16T16:01:04.922Z,12.40
2022-10-16T16:03:33.584Z,12.40
2022-10-16T16:06:06.960Z,12.40
2022-10-16T16:08:35.337Z,12.40
2022-10-16T16:11:09.900Z,12.30
2022-10-16T16:13:39.265Z,12.20
2022-10-16T16:16:12.540Z,12.20
2022-10-16T16:18:41.172Z,12.10
2022-10-16T16:21:10.713Z,12.10
2022-10-16T16:23:38.652Z,11.90
2022-10-16T16:26:12.391Z,11.90
2022-10-16T16:28:41.820Z,11.80
2022-10-16T16:31:09.757Z,11.80
2022-10-16T16:33:38.142Z,11.70
2022-10-16T16:36:13.023Z,11.70
2022-10-16T16:38:42.911Z,11.70
2022-10-16T16:41:24.859Z,11.70
2022-10-16T16:43:52.986Z,11.60
2022-10-16T16:46:21.192Z,11.50
2022-10-16T16:48:51.403Z,11.50
2022-10-16T16:51:20.674Z,11.40
2022-10-16T16:53:51.927Z,11.40
2022-10-16T16:56:21.261Z,11.30
2022-10-16T16:58:50.681Z,11.30
2022-10-16T17:01:20.573Z,11.30
2022-10-16T17:03:51.591Z,11.20
2022-10-16T17:06:21.636Z,11.10
2022-10-16T17:08:50.442Z,10.90
2022-10-16T17:11:21.483Z,10.80
2022-10-16T17:13:52.454Z,10.70
2022-10-16T17:16:26.482Z,10.50
2022-10-16T17:18:54.657Z,10.40
2022-10-16T17:21:22.738Z,10.30
2022-10-16T17:23:52.946Z,10.10
2022-10-16T17:26:20.550Z,10.00
2022-10-16T17:28:53.457Z,9.90
2022-10-16T17:31:24.292Z,9.70
2022-10-16T17:33:52.357Z,9.70
2022-10-16T17:36:20.862Z,9.70
2022-10-16T17:38:48.540Z,9.70
2022-10-16T17:41:21.781Z,9.70
2022-10-16T17:43:50.459Z,9.60
2022-10-16T17:46:19.663Z,9.60
2022-10-16T17:48:49.272Z,9.60
2022-10-16T17:51:19.922Z,9.60
2022-10-16T17:53:52.762Z,9.50
2022-10-16T17:56:20.712Z,9.60
2022-10-16T17:58:52.509Z,9.40
2022-10-16T18:01:23.077Z,9.50
2022-10-16T18:03:57.527Z,9.30
2022-10-16T18:06:26.215Z,9.30
2022-10-16T18:08:57.040Z,9.30
2022-10-16T18:11:25.293Z,9.30
2022-10-16T18:13:58.721Z,9.20
2022-10-16T18:16:28.832Z,9.30
2022-10-16T18:18:58.091Z,9.30
2022-10-16T18:21:30.176Z,9.40
2022-10-16T18:23:59.548Z,9.50
2022-10-16T18:26:27.854Z,9.60
2022-10-16T18:28:57.185Z,9.70
2022-10-16T18:31:26.497Z,9.70
2022-10-16T18:33:55.737Z,9.60
2022-10-16T18:36:35.163Z,9.60
2022-10-16T18:39:10.431Z,9.60
2022-10-16T18:41:39.561Z,9.60
2022-10-16T18:44:08.043Z,9.60
2022-10-16T18:46:36.440Z,9.60
2022-10-16T18:49:04.801Z,9.60
2022-10-16T18:51:38.180Z,9.60
2022-10-16T18:54:09.080Z,9.50
2022-10-16T18:56:36.928Z,9.50
2022-10-16T18:59:07.252Z,9.60
2022-10-16T19:01:38.259Z,9.60
2022-10-16T19:04:08.478Z,9.60
2022-10-16T19:06:39.162Z,9.70
2022-10-16T19:09:06.823Z,9.60
2022-10-16T19:11:37.931Z,9.60
2022-10-16T19:14:09.777Z,9.60
2022-10-16T19:16:38.171Z,9.50
2022-10-16T19:19:07.919Z,9.50
2022-10-16T19:21:37.638Z,9.50
2022-10-16T19:24:05.527Z,9.40
2022-10-16T19:26:36.832Z,9.30
2022-10-16T19:29:08.160Z,9.30
2022-10-16T19:31:35.668Z,9.30
2022-10-16T19:34:04.183Z,9.30
2022-10-16T19:36:36.355Z,9.30
2022-10-16T19:39:11.878Z,9.30
2022-10-16T19:41:39.764Z,9.30
2022-10-16T19:44:09.106Z,9.30
2022-10-16T19:46:36.571Z,9.30
2022-10-16T19:49:07.022Z,9.20
2022-10-16T19:51:35.166Z,9.10
2022-10-16T19:54:05.686Z,9.00
2022-10-16T19:56:35.084Z,9.10
2022-10-16T19:59:03.628Z,9.10
2022-10-16T20:01:32.240Z,9.00
2022-10-16T20:04:00.181Z,8.90
2022-10-16T20:06:28.019Z,8.80
2022-10-16T20:08:58.168Z,8.70
2022-10-16T20:11:28.734Z,8.70
2022-10-16T20:13:56.444Z,8.60
2022-10-16T20:16:25.759Z,8.80
2022-10-16T20:18:54.388Z,8.80
2022-10-16T20:21:24.972Z,8.80
2022-10-16T20:23:52.896Z,8.90
2022-10-16T20:26:22.332Z,8.90
2022-10-16T20:28:50.277Z,8.80
2022-10-16T20:31:22.637Z,8.80
2022-10-16T20:33:51.628Z,8.70
2022-10-16T20:36:20.674Z,8.60
2022-10-16T20:38:48.767Z,8.60
2022-10-16T20:41:17.631Z,8.60
2022-10-16T20:43:47.108Z,8.50
2022-10-16T20:46:16.994Z,8.40
2022-10-16T20:48:46.759Z,8.30
2022-10-16T20:51:20.786Z,8.30
2022-10-16T20:53:52.265Z,8.40
2022-10-16T20:56:19.744Z,8.40
2022-10-16T20:58:47.220Z,8.50
2022-10-16T21:01:16.865Z,8.50
2022-10-16T21:03:49.430Z,8.50
2022-10-16T21:06:16.950Z,8.60
2022-10-16T21:08:44.554Z,8.70
2022-10-16T21:11:18.321Z,8.70
2022-10-16T21:13:48.924Z,8.70
2022-10-16T21:16:16.545Z,8.70
2022-10-16T21:18:44.912Z,8.60
2022-10-16T21:21:23.698Z,8.50
2022-10-16T21:23:52.576Z,8.50
2022-10-16T21:26:26.091Z,8.50
2022-10-16T21:29:05.474Z,8.40
2022-10-16T21:31:34.510Z,8.40
2022-10-16T21:34:01.988Z,8.50
2022-10-16T21:36:32.320Z,8.50
2022-10-16T21:39:05.291Z,8.50
2022-10-16T21:41:33.394Z,8.60
2022-10-16T21:44:01.699Z,8.60
2022-10-16T21:46:31.881Z,8.70
2022-10-16T21:49:01.371Z,8.70
2022-10-16T21:51:35.273Z,8.80
2022-10-16T21:54:04.580Z,8.80
2022-10-16T21:56:32.645Z,8.80
2022-10-16T21:59:00.408Z,8.70
2022-10-16T22:01:29.217Z,8.70
2022-10-16T22:03:57.216Z,8.60
2022-10-16T22:06:27.481Z,8.50
2022-10-16T22:08:59.883Z,8.40
2022-10-16T22:11:36.817Z,8.40
2022-10-16T22:14:10.809Z,8.40
2022-10-16T22:16:39.084Z,8.50
2022-10-16T22:19:07.456Z,8.60
2022-10-16T22:21:37.068Z,8.70
2022-10-16T22:24:04.912Z,8.80
2022-10-16T22:26:32.937Z,8.80
2022-10-16T22:29:00.863Z,8.70
2022-10-16T22:31:28.473Z,8.60
2022-10-16T22:33:57.525Z,8.50
2022-10-16T22:36:26.038Z,8.40
2022-10-16T22:38:54.324Z,8.40
2022-10-16T22:41:22.383Z,8.50
2022-10-16T22:43:50.237Z,8.50
2022-10-16T22:46:20.988Z,8.50
2022-10-16T22:48:48.447Z,8.50
2022-10-16T22:51:17.138Z,8.60
2022-10-16T22:53:47.094Z,8.50
2022-10-16T22:56:18.421Z,8.40
2022-10-16T22:58:46.319Z,8.40
2022-10-16T23:01:20.692Z,8.30
2022-10-16T23:03:48.544Z,8.30
2022-10-16T23:06:16.533Z,8.30
2022-10-16T23:08:44.148Z,8.20
2022-10-16T23:11:13.335Z,8.20
2022-10-16T23:13:45.691Z,8.20
2022-10-16T23:16:15.464Z,8.20
2022-10-16T23:18:43.731Z,8.30
2022-10-16T23:21:14.360Z,8.30
2022-10-16T23:23:42.662Z,8.30
2022-10-16T23:26:16.056Z,8.40
2022-10-16T23:28:43.686Z,8.50
2022-10-16T23:31:12.852Z,8.50
2022-10-16T23:33:40.867Z,8.50
2022-10-16T23:36:11.402Z,8.50
2022-10-16T23:38:39.004Z,8.60
2022-10-16T23:41:06.714Z,8.60
2022-10-16T23:43:34.226Z,8.60
2022-10-16T23:46:02.120Z,8.70
2022-10-16T23:48:30.238Z,8.80
2022-10-16T23:50:57.840Z,8.70
2022-10-16T23:53:25.520Z,8.70
2022-10-16T23:55:53.158Z,8.70
2022-10-16T23:58:21.174Z,8.70
